Tenjinmaru No11 — JD3353 — position and weather

sailwx.info

Track history (hours):
 
Tides and Currents Weather Stations Pressure Air Temp Water Temp Dewpoint Dewpoint Depression Visibility Wind Speed Wind Dir Waves Ship Positions

Tenjinmaru No11

Last reported at 2016-May-28 00:24 UTC. Time now 2016-May-31 05:58 UTC.
Position N 36°18' E 141°06'.

Length 75 m; draft 4.8 m.

Type: Cargo ship. MMSI: 431003485.

Date/timePositionNaut miles runAvg speedWind from/ knotsBaromVisibWave heightAir tempDewpointWater temp
2016-May-28 00:24N 36°18' E 141°06'1011.7
2016-May-27 23:33N 36°08' E 141°03'1110.9
2016-May-27 22:31N 35°57' E 141°01'1010.5
2016-May-27 21:33N 35°47' E 140°58'1210.6
2016-May-27 20:25N 35°36' E 140°52'910.7
2016-May-27 19:32N 35°28' E 140°45'1211.1
2016-May-27 18:26N 35°18' E 140°37'1211.8
2016-May-27 17:27N 35°09' E 140°28'1112.4
2016-May-27 16:33N 35°02' E 140°18'1211.9
2016-May-27 15:33N 34°56' E 140°05'1310.7
2016-May-27 14:19N 34°52' E 139°50'810.3
2016-May-27 13:33N 34°51' E 139°40'57 9.3
2016-May-27 07:24N 34°31' E 138°35'  
2016-May-18 08:11N 34°38' E 134°59'610.0
2016-May-18 07:33N 34°34' E 135°05'2311.4
2016-May-18 05:33N 34°12' E 134°60'  
Track history (hours):
 
Tides and Currents Weather Stations Pressure Air Temp Water Temp Dewpoint Dewpoint Depression Visibility Wind Speed Wind Dir Waves Ship Positions

Tenjinmaru No11

Last reported at 2016-May-28 00:24 UTC. Time now 2016-May-31 05:58 UTC.
Position N 36°18' E 141°06'.

Length 75 m; draft 4.8 m.

Type: Cargo ship. MMSI: 431003485.

Date/timePositionNaut miles runAvg speedWind from/ knotsBaromVisibWave heightAir tempDewpointWater temp
2016-May-28 00:24N 36°18' E 141°06'1011.7
2016-May-27 23:33N 36°08' E 141°03'1110.9
2016-May-27 22:31N 35°57' E 141°01'1010.5
2016-May-27 21:33N 35°47' E 140°58'1210.6
2016-May-27 20:25N 35°36' E 140°52'910.7
2016-May-27 19:32N 35°28' E 140°45'1211.1
2016-May-27 18:26N 35°18' E 140°37'1211.8
2016-May-27 17:27N 35°09' E 140°28'1112.4
2016-May-27 16:33N 35°02' E 140°18'1211.9
2016-May-27 15:33N 34°56' E 140°05'1310.7
2016-May-27 14:19N 34°52' E 139°50'810.3
2016-May-27 13:33N 34°51' E 139°40'57 9.3
2016-May-27 07:24N 34°31' E 138°35'  
2016-May-18 08:11N 34°38' E 134°59'610.0
2016-May-18 07:33N 34°34' E 135°05'2311.4
2016-May-18 05:33N 34°12' E 134°60'  

Dump ship's entire track history